Gaylordsville, Connecticut
Current Conditions -  °F | °C
As of 10:53 AM on Saturday 22 Nov 2014 (Local Time) from KDXR Reporting Station
Clear Clear  
Wind Chill: 25°   Ceiling: Unl
Heat Index: 34°   Visibility: 10mi
Dew Point: 10°   Wind: 14mph
Humidity: 37%   Direction: 250°WSW
Pressure: 30.37"   Gusts: NA
Location:  41.65°N, 73.48°W
Report Text: KDXR 221553Z 25012KT 10SM CLR 01/M12 A3037 RMK AO2 SLP289 T00111122
Loading
Personal Weather Stations






























Interactive Weather Map New forecast layout! Learn more

10-Day Weather Forecast

Advertisements
Track Severe Weather on mobile